sensor_id;sensor_type;location;lat;lon;timestamp;temperature;humidity
20570;DHT22;10443;54.818;9.666;2022-07-01T00:01:49;23.80;99.90
20570;DHT22;10443;54.818;9.666;2022-07-01T00:04:16;23.80;99.90
20570;DHT22;10443;54.818;9.666;2022-07-01T00:06:43;23.80;99.90
20570;DHT22;10443;54.818;9.666;2022-07-01T00:09:09;23.80;99.90
20570;DHT22;10443;54.818;9.666;2022-07-01T00:11:36;23.80;99.90
20570;DHT22;10443;54.818;9.666;2022-07-01T00:14:04;23.80;99.90
20570;DHT22;10443;54.818;9.666;2022-07-01T00:16:30;23.80;99.90
20570;DHT22;10443;54.818;9.666;2022-07-01T00:18:57;23.80;99.90
20570;DHT22;10443;54.818;9.666;2022-07-01T00:21:24;23.80;99.90
20570;DHT22;10443;54.818;9.666;2022-07-01T00:23:50;23.80;99.90
20570;DHT22;10443;54.818;9.666;2022-07-01T00:26:17;23.80;99.90
20570;DHT22;10443;54.818;9.666;2022-07-01T00:28:44;23.80;99.90
20570;DHT22;10443;54.818;9.666;2022-07-01T00:31:11;23.80;99.90
20570;DHT22;10443;54.818;9.666;2022-07-01T00:33:37;23.80;99.90
20570;DHT22;10443;54.818;9.666;2022-07-01T00:36:04;23.80;99.90
20570;DHT22;10443;54.818;9.666;2022-07-01T00:38:31;23.80;99.90
20570;DHT22;10443;54.818;9.666;2022-07-01T00:40:58;23.80;99.90
20570;DHT22;10443;54.818;9.666;2022-07-01T00:43:25;23.80;99.90
20570;DHT22;10443;54.818;9.666;2022-07-01T00:46:12;23.80;99.90
20570;DHT22;10443;54.818;9.666;2022-07-01T00:48:39;23.80;99.90
20570;DHT22;10443;54.818;9.666;2022-07-01T00:51:07;23.80;99.90
20570;DHT22;10443;54.818;9.666;2022-07-01T00:53:34;23.80;99.90
20570;DHT22;10443;54.818;9.666;2022-07-01T00:56:00;23.80;99.90
20570;DHT22;10443;54.818;9.666;2022-07-01T00:58:28;23.80;99.90
20570;DHT22;10443;54.818;9.666;2022-07-01T01:00:58;23.70;99.90
20570;DHT22;10443;54.818;9.666;2022-07-01T01:03:26;23.80;99.90
20570;DHT22;10443;54.818;9.666;2022-07-01T01:05:54;23.70;99.90
20570;DHT22;10443;54.818;9.666;2022-07-01T01:08:24;23.70;99.90
20570;DHT22;10443;54.818;9.666;2022-07-01T01:10:52;23.70;99.90
20570;DHT22;10443;54.818;9.666;2022-07-01T01:13:19;23.80;99.90
20570;DHT22;10443;54.818;9.666;2022-07-01T01:15:46;23.70;99.90
20570;DHT22;10443;54.818;9.666;2022-07-01T01:18:13;23.70;99.90
20570;DHT22;10443;54.818;9.666;2022-07-01T01:20:40;23.70;99.90
20570;DHT22;10443;54.818;9.666;2022-07-01T01:23:06;23.70;99.90
20570;DHT22;10443;54.818;9.666;2022-07-01T01:25:33;23.70;99.90
20570;DHT22;10443;54.818;9.666;2022-07-01T01:28:01;23.70;99.90
20570;DHT22;10443;54.818;9.666;2022-07-01T01:30:28;23.70;99.90
20570;DHT22;10443;54.818;9.666;2022-07-01T01:32:54;23.70;99.90
20570;DHT22;10443;54.818;9.666;2022-07-01T01:35:22;23.70;99.90
20570;DHT22;10443;54.818;9.666;2022-07-01T01:37:49;23.70;99.90
20570;DHT22;10443;54.818;9.666;2022-07-01T01:40:15;23.70;99.90
20570;DHT22;10443;54.818;9.666;2022-07-01T01:42:43;23.70;99.90
20570;DHT22;10443;54.818;9.666;2022-07-01T01:45:10;23.70;99.90
20570;DHT22;10443;54.818;9.666;2022-07-01T01:47:37;23.70;99.90
20570;DHT22;10443;54.818;9.666;2022-07-01T01:50:05;23.60;99.90
20570;DHT22;10443;54.818;9.666;2022-07-01T01:52:32;23.70;99.90
20570;DHT22;10443;54.818;9.666;2022-07-01T01:54:59;23.60;99.90
20570;DHT22;10443;54.818;9.666;2022-07-01T01:57:26;23.70;99.90
20570;DHT22;10443;54.818;9.666;2022-07-01T01:59:53;23.70;99.90
20570;DHT22;10443;54.818;9.666;2022-07-01T02:02:20;23.70;99.90
20570;DHT22;10443;54.818;9.666;2022-07-01T02:04:46;23.70;99.90
20570;DHT22;10443;54.818;9.666;2022-07-01T02:07:13;23.60;99.90
20570;DHT22;10443;54.818;9.666;2022-07-01T02:09:40;23.70;99.90
20570;DHT22;10443;54.818;9.666;2022-07-01T02:12:07;23.70;99.90
20570;DHT22;10443;54.818;9.666;2022-07-01T02:14:34;23.70;99.90
20570;DHT22;10443;54.818;9.666;2022-07-01T02:17:01;23.70;99.90
20570;DHT22;10443;54.818;9.666;2022-07-01T02:19:28;23.60;99.90
20570;DHT22;10443;54.818;9.666;2022-07-01T02:21:54;23.70;99.90
20570;DHT22;10443;54.818;9.666;2022-07-01T02:24:21;23.60;99.90
20570;DHT22;10443;54.818;9.666;2022-07-01T02:26:48;23.70;99.90
20570;DHT22;10443;54.818;9.666;2022-07-01T02:29:14;23.70;99.90
20570;DHT22;10443;54.818;9.666;2022-07-01T02:31:41;23.70;99.90
20570;DHT22;10443;54.818;9.666;2022-07-01T02:34:08;23.60;99.90
20570;DHT22;10443;54.818;9.666;2022-07-01T02:36:34;23.70;99.90
20570;DHT22;10443;54.818;9.666;2022-07-01T02:39:02;23.60;99.90
20570;DHT22;10443;54.818;9.666;2022-07-01T02:41:28;23.70;99.90
20570;DHT22;10443;54.818;9.666;2022-07-01T02:43:55;23.70;99.90
20570;DHT22;10443;54.818;9.666;2022-07-01T02:46:22;23.70;99.90
20570;DHT22;10443;54.818;9.666;2022-07-01T02:48:48;23.60;99.90
20570;DHT22;10443;54.818;9.666;2022-07-01T02:51:15;23.70;99.90
20570;DHT22;10443;54.818;9.666;2022-07-01T02:53:42;23.70;99.90
20570;DHT22;10443;54.818;9.666;2022-07-01T02:56:08;23.70;99.90
20570;DHT22;10443;54.818;9.666;2022-07-01T02:58:35;23.70;99.90
20570;DHT22;10443;54.818;9.666;2022-07-01T03:01:02;23.70;99.90
20570;DHT22;10443;54.818;9.666;2022-07-01T03:03:28;23.70;99.90
20570;DHT22;10443;54.818;9.666;2022-07-01T03:05:55;23.70;99.90
20570;DHT22;10443;54.818;9.666;2022-07-01T03:08:23;23.60;99.90
20570;DHT22;10443;54.818;9.666;2022-07-01T03:10:49;23.70;99.90
20570;DHT22;10443;54.818;9.666;2022-07-01T03:13:16;23.60;99.90
20570;DHT22;10443;54.818;9.666;2022-07-01T03:15:42;23.70;99.90
20570;DHT22;10443;54.818;9.666;2022-07-01T03:18:09;23.70;99.90
20570;DHT22;10443;54.818;9.666;2022-07-01T03:20:36;23.70;99.90
20570;DHT22;10443;54.818;9.666;2022-07-01T03:23:02;27.00;99.90
20570;DHT22;10443;54.818;9.666;2022-07-01T03:25:29;23.70;99.90
20570;DHT22;10443;54.818;9.666;2022-07-01T03:27:56;23.60;99.90
20570;DHT22;10443;54.818;9.666;2022-07-01T03:30:23;23.60;99.90
20570;DHT22;10443;54.818;9.666;2022-07-01T03:32:49;23.70;99.90
20570;DHT22;10443;54.818;9.666;2022-07-01T03:35:16;23.60;99.90
20570;DHT22;10443;54.818;9.666;2022-07-01T03:38:02;23.60;99.90
20570;DHT22;10443;54.818;9.666;2022-07-01T03:40:31;23.70;99.90
20570;DHT22;10443;54.818;9.666;2022-07-01T03:42:58;23.60;99.90
20570;DHT22;10443;54.818;9.666;2022-07-01T03:45:24;23.60;99.90
20570;DHT22;10443;54.818;9.666;2022-07-01T03:47:52;23.60;99.90
20570;DHT22;10443;54.818;9.666;2022-07-01T03:50:21;23.60;99.90
20570;DHT22;10443;54.818;9.666;2022-07-01T03:52:48;23.60;99.90
20570;DHT22;10443;54.818;9.666;2022-07-01T03:55:15;23.60;99.90
20570;DHT22;10443;54.818;9.666;2022-07-01T03:57:43;23.60;99.90
20570;DHT22;10443;54.818;9.666;2022-07-01T04:00:10;23.60;99.90
20570;DHT22;10443;54.818;9.666;2022-07-01T04:02:40;23.60;99.90
20570;DHT22;10443;54.818;9.666;2022-07-01T04:05:07;23.60;99.90
20570;DHT22;10443;54.818;9.666;2022-07-01T04:07:34;23.60;99.90
20570;DHT22;10443;54.818;9.666;2022-07-01T04:10:01;23.60;99.90
20570;DHT22;10443;54.818;9.666;2022-07-01T04:12:27;23.60;99.90
20570;DHT22;10443;54.818;9.666;2022-07-01T04:14:54;23.60;99.90
20570;DHT22;10443;54.818;9.666;2022-07-01T04:17:21;23.60;99.90
20570;DHT22;10443;54.818;9.666;2022-07-01T04:19:47;23.60;99.90
20570;DHT22;10443;54.818;9.666;2022-07-01T04:22:14;23.10;99.90
20570;DHT22;10443;54.818;9.666;2022-07-01T04:24:59;23.60;99.90
20570;DHT22;10443;54.818;9.666;2022-07-01T04:27:27;23.60;99.90
20570;DHT22;10443;54.818;9.666;2022-07-01T04:29:54;23.60;99.90
20570;DHT22;10443;54.818;9.666;2022-07-01T04:32:20;23.60;99.90
20570;DHT22;10443;54.818;9.666;2022-07-01T04:34:47;23.60;99.90
20570;DHT22;10443;54.818;9.666;2022-07-01T04:37:14;23.60;99.90
20570;DHT22;10443;54.818;9.666;2022-07-01T04:39:40;23.60;99.90
20570;DHT22;10443;54.818;9.666;2022-07-01T04:42:07;23.50;99.90
20570;DHT22;10443;54.818;9.666;2022-07-01T04:44:35;23.50;99.90
20570;DHT22;10443;54.818;9.666;2022-07-01T04:47:09;23.60;99.90
20570;DHT22;10443;54.818;9.666;2022-07-01T04:49:36;23.60;99.90
20570;DHT22;10443;54.818;9.666;2022-07-01T04:52:03;23.60;99.90
20570;DHT22;10443;54.818;9.666;2022-07-01T04:54:29;23.60;99.90
20570;DHT22;10443;54.818;9.666;2022-07-01T04:56:56;23.50;99.90
20570;DHT22;10443;54.818;9.666;2022-07-01T04:59:23;23.60;99.90
20570;DHT22;10443;54.818;9.666;2022-07-01T05:01:49;23.50;99.90
20570;DHT22;10443;54.818;9.666;2022-07-01T05:04:18;23.60;99.90
20570;DHT22;10443;54.818;9.666;2022-07-01T05:06:45;23.60;99.90
20570;DHT22;10443;54.818;9.666;2022-07-01T05:09:12;23.70;99.90
20570;DHT22;10443;54.818;9.666;2022-07-01T05:11:39;23.60;99.90
20570;DHT22;10443;54.818;9.666;2022-07-01T05:14:06;23.60;99.90
20570;DHT22;10443;54.818;9.666;2022-07-01T05:16:34;23.60;99.90
20570;DHT22;10443;54.818;9.666;2022-07-01T05:19:02;23.60;99.90
20570;DHT22;10443;54.818;9.666;2022-07-01T05:21:47;23.60;99.90
20570;DHT22;10443;54.818;9.666;2022-07-01T05:24:25;23.60;99.90
20570;DHT22;10443;54.818;9.666;2022-07-01T05:26:52;23.60;99.90
20570;DHT22;10443;54.818;9.666;2022-07-01T05:29:18;23.60;99.90
20570;DHT22;10443;54.818;9.666;2022-07-01T05:31:45;23.60;99.90
20570;DHT22;10443;54.818;9.666;2022-07-01T05:34:12;23.60;99.90
20570;DHT22;10443;54.818;9.666;2022-07-01T05:36:39;23.60;99.90
20570;DHT22;10443;54.818;9.666;2022-07-01T05:39:05;23.60;99.90
20570;DHT22;10443;54.818;9.666;2022-07-01T05:41:32;23.70;99.90
20570;DHT22;10443;54.818;9.666;2022-07-01T05:44:00;23.70;99.90
20570;DHT22;10443;54.818;9.666;2022-07-01T05:46:27;23.70;99.90
20570;DHT22;10443;54.818;9.666;2022-07-01T05:48:54;23.70;99.90
20570;DHT22;10443;54.818;9.666;2022-07-01T05:51:21;23.60;99.90
20570;DHT22;10443;54.818;9.666;2022-07-01T05:53:48;23.60;99.90
20570;DHT22;10443;54.818;9.666;2022-07-01T05:56:14;23.60;99.90
20570;DHT22;10443;54.818;9.666;2022-07-01T05:58:42;23.60;99.90
20570;DHT22;10443;54.818;9.666;2022-07-01T06:01:08;23.60;99.90
20570;DHT22;10443;54.818;9.666;2022-07-01T06:03:35;23.60;99.90
20570;DHT22;10443;54.818;9.666;2022-07-01T06:06:02;23.60;99.90
20570;DHT22;10443;54.818;9.666;2022-07-01T06:08:29;23.60;99.90
20570;DHT22;10443;54.818;9.666;2022-07-01T06:10:56;23.60;99.90
20570;DHT22;10443;54.818;9.666;2022-07-01T06:13:23;23.60;99.90
20570;DHT22;10443;54.818;9.666;2022-07-01T06:15:49;23.60;99.90
20570;DHT22;10443;54.818;9.666;2022-07-01T06:18:16;23.60;99.90
20570;DHT22;10443;54.818;9.666;2022-07-01T06:20:43;23.60;99.90
20570;DHT22;10443;54.818;9.666;2022-07-01T06:23:09;23.60;99.90
20570;DHT22;10443;54.818;9.666;2022-07-01T06:25:36;23.60;99.90
20570;DHT22;10443;54.818;9.666;2022-07-01T06:28:03;23.60;99.90
20570;DHT22;10443;54.818;9.666;2022-07-01T06:30:30;23.60;99.90
20570;DHT22;10443;54.818;9.666;2022-07-01T06:32:56;23.50;99.90
20570;DHT22;10443;54.818;9.666;2022-07-01T06:35:23;23.60;99.90
20570;DHT22;10443;54.818;9.666;2022-07-01T06:37:50;23.60;99.90
20570;DHT22;10443;54.818;9.666;2022-07-01T06:40:23;23.60;99.90
20570;DHT22;10443;54.818;9.666;2022-07-01T06:42:50;23.60;99.90
20570;DHT22;10443;54.818;9.666;2022-07-01T06:45:17;23.50;99.90
20570;DHT22;10443;54.818;9.666;2022-07-01T06:47:44;23.60;99.90
20570;DHT22;10443;54.818;9.666;2022-07-01T06:50:11;23.60;99.90
20570;DHT22;10443;54.818;9.666;2022-07-01T06:52:37;23.50;99.90
20570;DHT22;10443;54.818;9.666;2022-07-01T06:55:04;23.40;99.90
20570;DHT22;10443;54.818;9.666;2022-07-01T06:57:31;23.60;99.90
20570;DHT22;10443;54.818;9.666;2022-07-01T06:59:58;23.50;99.90
20570;DHT22;10443;54.818;9.666;2022-07-01T07:02:24;23.50;99.90
20570;DHT22;10443;54.818;9.666;2022-07-01T07:04:55;23.40;99.90
20570;DHT22;10443;54.818;9.666;2022-07-01T07:07:27;23.50;99.90
20570;DHT22;10443;54.818;9.666;2022-07-01T07:09:53;23.40;99.90
20570;DHT22;10443;54.818;9.666;2022-07-01T07:12:22;23.50;99.90
20570;DHT22;10443;54.818;9.666;2022-07-01T07:14:49;23.40;99.90
20570;DHT22;10443;54.818;9.666;2022-07-01T07:17:15;23.40;99.90
20570;DHT22;10443;54.818;9.666;2022-07-01T07:19:42;23.40;99.90
20570;DHT22;10443;54.818;9.666;2022-07-01T07:22:09;23.30;99.90
20570;DHT22;10443;54.818;9.666;2022-07-01T07:24:36;23.30;99.90
20570;DHT22;10443;54.818;9.666;2022-07-01T07:27:04;23.30;99.90
20570;DHT22;10443;54.818;9.666;2022-07-01T07:29:30;23.30;99.90
20570;DHT22;10443;54.818;9.666;2022-07-01T07:31:57;23.30;99.90
20570;DHT22;10443;54.818;9.666;2022-07-01T07:34:24;23.20;99.90
20570;DHT22;10443;54.818;9.666;2022-07-01T07:36:50;23.20;99.90
20570;DHT22;10443;54.818;9.666;2022-07-01T07:39:17;23.20;99.90
20570;DHT22;10443;54.818;9.666;2022-07-01T07:41:44;21.70;99.90
20570;DHT22;10443;54.818;9.666;2022-07-01T07:44:10;23.20;99.90
20570;DHT22;10443;54.818;9.666;2022-07-01T07:46:37;23.20;99.90
20570;DHT22;10443;54.818;9.666;2022-07-01T07:49:04;23.20;99.90
20570;DHT22;10443;54.818;9.666;2022-07-01T07:51:31;23.10;99.90
20570;DHT22;10443;54.818;9.666;2022-07-01T07:53:58;23.10;99.90
20570;DHT22;10443;54.818;9.666;2022-07-01T07:56:24;23.20;99.90
20570;DHT22;10443;54.818;9.666;2022-07-01T07:58:51;23.10;99.90
20570;DHT22;10443;54.818;9.666;2022-07-01T08:01:17;23.10;99.90
20570;DHT22;10443;54.818;9.666;2022-07-01T08:03:44;23.10;99.90
20570;DHT22;10443;54.818;9.666;2022-07-01T08:06:12;23.10;99.90
20570;DHT22;10443;54.818;9.666;2022-07-01T08:08:39;23.10;99.90
20570;DHT22;10443;54.818;9.666;2022-07-01T08:11:05;23.00;99.90
20570;DHT22;10443;54.818;9.666;2022-07-01T08:13:32;23.00;99.90
20570;DHT22;10443;54.818;9.666;2022-07-01T08:16:00;23.10;99.90
20570;DHT22;10443;54.818;9.666;2022-07-01T08:18:27;23.00;99.90
20570;DHT22;10443;54.818;9.666;2022-07-01T08:20:53;23.00;99.90
20570;DHT22;10443;54.818;9.666;2022-07-01T08:23:21;23.00;99.90
20570;DHT22;10443;54.818;9.666;2022-07-01T08:25:48;23.00;99.90
20570;DHT22;10443;54.818;9.666;2022-07-01T08:28:16;23.00;99.90
20570;DHT22;10443;54.818;9.666;2022-07-01T08:30:43;23.00;99.90
20570;DHT22;10443;54.818;9.666;2022-07-01T08:33:10;23.00;99.90
20570;DHT22;10443;54.818;9.666;2022-07-01T08:35:37;23.00;99.90
20570;DHT22;10443;54.818;9.666;2022-07-01T08:38:05;23.00;99.90
20570;DHT22;10443;54.818;9.666;2022-07-01T08:40:32;23.00;99.90
20570;DHT22;10443;54.818;9.666;2022-07-01T08:43:03;23.00;99.90
20570;DHT22;10443;54.818;9.666;2022-07-01T08:45:32;22.90;99.90
20570;DHT22;10443;54.818;9.666;2022-07-01T08:48:00;23.00;99.90
20570;DHT22;10443;54.818;9.666;2022-07-01T08:50:29;23.00;99.90
20570;DHT22;10443;54.818;9.666;2022-07-01T08:52:57;22.90;99.90
20570;DHT22;10443;54.818;9.666;2022-07-01T08:55:23;23.00;99.90
20570;DHT22;10443;54.818;9.666;2022-07-01T08:57:51;22.90;99.90
20570;DHT22;10443;54.818;9.666;2022-07-01T09:00:19;22.90;99.90
20570;DHT22;10443;54.818;9.666;2022-07-01T09:02:50;23.00;99.90
20570;DHT22;10443;54.818;9.666;2022-07-01T09:05:18;23.00;99.90
20570;DHT22;10443;54.818;9.666;2022-07-01T09:07:46;22.90;99.90
20570;DHT22;10443;54.818;9.666;2022-07-01T09:10:18;22.90;99.90
20570;DHT22;10443;54.818;9.666;2022-07-01T09:12:46;22.90;99.90
20570;DHT22;10443;54.818;9.666;2022-07-01T09:15:30;23.00;99.90
20570;DHT22;10443;54.818;9.666;2022-07-01T09:18:06;22.90;99.90
20570;DHT22;10443;54.818;9.666;2022-07-01T09:20:38;22.90;99.90
20570;DHT22;10443;54.818;9.666;2022-07-01T09:23:13;22.90;99.90
20570;DHT22;10443;54.818;9.666;2022-07-01T09:25:45;22.30;99.90
20570;DHT22;10443;54.818;9.666;2022-07-01T09:28:24;22.90;99.90
20570;DHT22;10443;54.818;9.666;2022-07-01T09:30:57;22.90;99.90
20570;DHT22;10443;54.818;9.666;2022-07-01T09:33:26;22.80;99.90
20570;DHT22;10443;54.818;9.666;2022-07-01T09:35:54;23.00;99.90
20570;DHT22;10443;54.818;9.666;2022-07-01T09:38:25;22.80;99.90
20570;DHT22;10443;54.818;9.666;2022-07-01T09:41:03;22.90;99.90
20570;DHT22;10443;54.818;9.666;2022-07-01T09:43:32;22.80;99.90
20570;DHT22;10443;54.818;9.666;2022-07-01T09:46:03;22.80;99.90
20570;DHT22;10443;54.818;9.666;2022-07-01T09:51:01;22.80;99.90
20570;DHT22;10443;54.818;9.666;2022-07-01T09:53:28;22.80;99.90
20570;DHT22;10443;54.818;9.666;2022-07-01T09:55:55;22.80;99.90
20570;DHT22;10443;54.818;9.666;2022-07-01T09:58:22;22.80;99.90
20570;DHT22;10443;54.818;9.666;2022-07-01T10:00:49;22.80;99.90
20570;DHT22;10443;54.818;9.666;2022-07-01T10:03:19;22.80;99.90
20570;DHT22;10443;54.818;9.666;2022-07-01T10:14:13;22.70;99.90
20570;DHT22;10443;54.818;9.666;2022-07-01T10:16:40;22.70;99.90
20570;DHT22;10443;54.818;9.666;2022-07-01T10:21:46;22.70;99.90
20570;DHT22;10443;54.818;9.666;2022-07-01T10:24:14;22.60;99.90
20570;DHT22;10443;54.818;9.666;2022-07-01T10:26:41;22.70;99.90
20570;DHT22;10443;54.818;9.666;2022-07-01T10:35:16;22.60;99.90
20570;DHT22;10443;54.818;9.666;2022-07-01T10:37:58;22.60;99.90
20570;DHT22;10443;54.818;9.666;2022-07-01T10:40:45;22.60;99.90
20570;DHT22;10443;54.818;9.666;2022-07-01T10:43:17;22.50;99.90
20570;DHT22;10443;54.818;9.666;2022-07-01T10:49:16;22.60;99.90
20570;DHT22;10443;54.818;9.666;2022-07-01T10:51:52;22.50;99.90
20570;DHT22;10443;54.818;9.666;2022-07-01T10:54:53;22.50;99.90
20570;DHT22;10443;54.818;9.666;2022-07-01T11:02:41;22.50;99.90
20570;DHT22;10443;54.818;9.666;2022-07-01T11:05:10;22.50;99.90
20570;DHT22;10443;54.818;9.666;2022-07-01T11:07:39;22.40;99.90
20570;DHT22;10443;54.818;9.666;2022-07-01T11:10:08;22.50;99.90
20570;DHT22;10443;54.818;9.666;2022-07-01T11:12:35;22.40;99.90
20570;DHT22;10443;54.818;9.666;2022-07-01T11:15:03;22.40;99.90
20570;DHT22;10443;54.818;9.666;2022-07-01T11:17:35;22.40;99.90
20570;DHT22;10443;54.818;9.666;2022-07-01T11:20:08;22.50;99.90
20570;DHT22;10443;54.818;9.666;2022-07-01T11:22:35;22.50;99.90
20570;DHT22;10443;54.818;9.666;2022-07-01T11:25:03;22.50;99.90
20570;DHT22;10443;54.818;9.666;2022-07-01T11:27:31;22.50;99.90
20570;DHT22;10443;54.818;9.666;2022-07-01T11:30:00;22.50;99.90
20570;DHT22;10443;54.818;9.666;2022-07-01T11:32:29;22.50;99.90
20570;DHT22;10443;54.818;9.666;2022-07-01T11:34:57;22.50;99.90
20570;DHT22;10443;54.818;9.666;2022-07-01T11:37:27;22.50;99.90
20570;DHT22;10443;54.818;9.666;2022-07-01T11:40:16;22.50;99.90
20570;DHT22;10443;54.818;9.666;2022-07-01T11:42:45;22.50;99.90
20570;DHT22;10443;54.818;9.666;2022-07-01T11:45:25;22.50;99.90
20570;DHT22;10443;54.818;9.666;2022-07-01T11:47:52;22.50;99.90
20570;DHT22;10443;54.818;9.666;2022-07-01T11:50:20;22.50;99.90
20570;DHT22;10443;54.818;9.666;2022-07-01T11:52:47;22.40;99.90
20570;DHT22;10443;54.818;9.666;2022-07-01T11:55:18;22.40;99.90
20570;DHT22;10443;54.818;9.666;2022-07-01T11:58:03;22.40;99.90
20570;DHT22;10443;54.818;9.666;2022-07-01T12:00:34;22.40;99.90
20570;DHT22;10443;54.818;9.666;2022-07-01T12:03:02;22.50;99.90
20570;DHT22;10443;54.818;9.666;2022-07-01T12:05:30;22.40;99.90
20570;DHT22;10443;54.818;9.666;2022-07-01T12:08:04;22.40;99.90
20570;DHT22;10443;54.818;9.666;2022-07-01T12:10:31;22.40;99.90
20570;DHT22;10443;54.818;9.666;2022-07-01T12:12:57;22.30;99.90
20570;DHT22;10443;54.818;9.666;2022-07-01T12:15:24;22.40;99.90
20570;DHT22;10443;54.818;9.666;2022-07-01T12:18:04;22.30;99.90
20570;DHT22;10443;54.818;9.666;2022-07-01T12:20:32;22.30;99.90
20570;DHT22;10443;54.818;9.666;2022-07-01T12:23:15;22.30;99.90
20570;DHT22;10443;54.818;9.666;2022-07-01T12:25:50;22.30;99.90
20570;DHT22;10443;54.818;9.666;2022-07-01T12:28:33;22.30;99.90
20570;DHT22;10443;54.818;9.666;2022-07-01T12:31:08;22.30;99.90
20570;DHT22;10443;54.818;9.666;2022-07-01T12:33:44;22.20;99.90
20570;DHT22;10443;54.818;9.666;2022-07-01T12:36:14;22.20;99.90
20570;DHT22;10443;54.818;9.666;2022-07-01T12:38:43;22.20;99.90
20570;DHT22;10443;54.818;9.666;2022-07-01T12:43:58;22.20;99.90
20570;DHT22;10443;54.818;9.666;2022-07-01T12:46:31;22.20;99.90
20570;DHT22;10443;54.818;9.666;2022-07-01T12:48:58;22.20;99.90
20570;DHT22;10443;54.818;9.666;2022-07-01T12:51:32;22.20;99.90
20570;DHT22;10443;54.818;9.666;2022-07-01T12:53:59;22.20;99.90
20570;DHT22;10443;54.818;9.666;2022-07-01T12:56:28;22.20;99.90
20570;DHT22;10443;54.818;9.666;2022-07-01T12:58:55;22.20;99.90
20570;DHT22;10443;54.818;9.666;2022-07-01T13:01:23;22.20;99.90
20570;DHT22;10443;54.818;9.666;2022-07-01T13:03:49;22.10;99.90
20570;DHT22;10443;54.818;9.666;2022-07-01T13:06:16;22.00;99.90
20570;DHT22;10443;54.818;9.666;2022-07-01T13:08:43;22.10;99.90
20570;DHT22;10443;54.818;9.666;2022-07-01T13:11:10;22.10;99.90
20570;DHT22;10443;54.818;9.666;2022-07-01T13:13:36;22.10;99.90
20570;DHT22;10443;54.818;9.666;2022-07-01T13:16:03;22.10;99.90
20570;DHT22;10443;54.818;9.666;2022-07-01T13:18:30;22.10;99.90
20570;DHT22;10443;54.818;9.666;2022-07-01T13:20:57;22.10;99.90
20570;DHT22;10443;54.818;9.666;2022-07-01T13:23:24;22.20;99.90
20570;DHT22;10443;54.818;9.666;2022-07-01T13:25:50;22.10;99.90
20570;DHT22;10443;54.818;9.666;2022-07-01T13:28:17;22.20;99.90
20570;DHT22;10443;54.818;9.666;2022-07-01T13:30:44;22.10;99.90
20570;DHT22;10443;54.818;9.666;2022-07-01T13:33:10;22.10;99.90
20570;DHT22;10443;54.818;9.666;2022-07-01T13:35:37;22.10;99.90
20570;DHT22;10443;54.818;9.666;2022-07-01T13:38:04;22.10;99.90
20570;DHT22;10443;54.818;9.666;2022-07-01T13:40:30;22.10;99.90
20570;DHT22;10443;54.818;9.666;2022-07-01T13:42:57;22.10;99.90
20570;DHT22;10443;54.818;9.666;2022-07-01T13:45:24;22.10;99.90
20570;DHT22;10443;54.818;9.666;2022-07-01T13:47:51;22.10;99.90
20570;DHT22;10443;54.818;9.666;2022-07-01T13:50:17;22.10;99.90
20570;DHT22;10443;54.818;9.666;2022-07-01T13:52:47;22.10;99.90
20570;DHT22;10443;54.818;9.666;2022-07-01T13:55:14;24.00;99.90
20570;DHT22;10443;54.818;9.666;2022-07-01T13:57:41;22.10;99.90
20570;DHT22;10443;54.818;9.666;2022-07-01T14:00:08;22.10;99.90
20570;DHT22;10443;54.818;9.666;2022-07-01T14:02:35;22.10;99.90
20570;DHT22;10443;54.818;9.666;2022-07-01T14:05:02;22.10;99.90
20570;DHT22;10443;54.818;9.666;2022-07-01T14:07:28;21.90;99.90
20570;DHT22;10443;54.818;9.666;2022-07-01T14:09:55;22.00;99.90
20570;DHT22;10443;54.818;9.666;2022-07-01T14:12:22;22.10;99.90
20570;DHT22;10443;54.818;9.666;2022-07-01T14:14:57;22.00;99.90
20570;DHT22;10443;54.818;9.666;2022-07-01T14:17:28;22.00;99.90
20570;DHT22;10443;54.818;9.666;2022-07-01T14:19:55;22.00;99.90
20570;DHT22;10443;54.818;9.666;2022-07-01T14:22:24;22.00;99.90
20570;DHT22;10443;54.818;9.666;2022-07-01T14:24:52;22.00;99.90
20570;DHT22;10443;54.818;9.666;2022-07-01T14:27:19;22.00;99.90
20570;DHT22;10443;54.818;9.666;2022-07-01T14:32:17;22.00;99.90
20570;DHT22;10443;54.818;9.666;2022-07-01T14:34:44;22.10;99.90
20570;DHT22;10443;54.818;9.666;2022-07-01T14:37:11;22.10;99.90
20570;DHT22;10443;54.818;9.666;2022-07-01T14:39:37;22.10;99.90
20570;DHT22;10443;54.818;9.666;2022-07-01T14:42:04;22.10;99.90
20570;DHT22;10443;54.818;9.666;2022-07-01T14:44:31;22.10;99.90
20570;DHT22;10443;54.818;9.666;2022-07-01T14:46:58;22.10;99.90
20570;DHT22;10443;54.818;9.666;2022-07-01T14:49:25;22.10;99.90
20570;DHT22;10443;54.818;9.666;2022-07-01T14:51:51;22.00;99.90
20570;DHT22;10443;54.818;9.666;2022-07-01T14:54:18;22.10;99.90
20570;DHT22;10443;54.818;9.666;2022-07-01T14:56:45;22.10;99.90
20570;DHT22;10443;54.818;9.666;2022-07-01T14:59:12;22.10;99.90
20570;DHT22;10443;54.818;9.666;2022-07-01T15:01:39;22.10;99.90
20570;DHT22;10443;54.818;9.666;2022-07-01T15:04:06;22.10;99.90
20570;DHT22;10443;54.818;9.666;2022-07-01T15:06:32;22.10;99.90
20570;DHT22;10443;54.818;9.666;2022-07-01T15:08:59;22.10;99.90
20570;DHT22;10443;54.818;9.666;2022-07-01T15:11:25;22.00;99.90
20570;DHT22;10443;54.818;9.666;2022-07-01T15:13:52;22.10;99.90
20570;DHT22;10443;54.818;9.666;2022-07-01T15:16:19;22.20;99.90
20570;DHT22;10443;54.818;9.666;2022-07-01T15:18:46;22.20;99.90
20570;DHT22;10443;54.818;9.666;2022-07-01T15:21:13;22.20;99.90
20570;DHT22;10443;54.818;9.666;2022-07-01T15:23:39;22.20;99.90
20570;DHT22;10443;54.818;9.666;2022-07-01T15:26:06;22.20;99.90
20570;DHT22;10443;54.818;9.666;2022-07-01T15:28:32;22.20;99.90
20570;DHT22;10443;54.818;9.666;2022-07-01T15:30:59;22.20;99.90
20570;DHT22;10443;54.818;9.666;2022-07-01T15:33:26;22.20;99.90
20570;DHT22;10443;54.818;9.666;2022-07-01T15:35:53;22.20;99.90
20570;DHT22;10443;54.818;9.666;2022-07-01T15:38:20;22.20;99.90
20570;DHT22;10443;54.818;9.666;2022-07-01T15:40:46;22.30;99.90
20570;DHT22;10443;54.818;9.666;2022-07-01T15:43:13;22.30;99.90
20570;DHT22;10443;54.818;9.666;2022-07-01T15:45:41;22.20;99.90
20570;DHT22;10443;54.818;9.666;2022-07-01T15:48:08;22.30;99.90
20570;DHT22;10443;54.818;9.666;2022-07-01T15:50:40;22.20;99.90
20570;DHT22;10443;54.818;9.666;2022-07-01T15:53:09;22.20;99.90
20570;DHT22;10443;54.818;9.666;2022-07-01T15:55:36;22.20;99.90
20570;DHT22;10443;54.818;9.666;2022-07-01T15:58:11;22.20;99.90
20570;DHT22;10443;54.818;9.666;2022-07-01T16:00:48;22.20;99.90
20570;DHT22;10443;54.818;9.666;2022-07-01T16:03:16;22.20;99.90
20570;DHT22;10443;54.818;9.666;2022-07-01T16:05:47;22.20;99.90
20570;DHT22;10443;54.818;9.666;2022-07-01T16:08:23;22.20;99.90
20570;DHT22;10443;54.818;9.666;2022-07-01T16:10:51;22.20;99.90